createdAt,value
2022-12-18T08:46:45.850Z,2.12
2022-12-18T08:57:56.356Z,2.67
2022-12-18T09:01:32.342Z,3.00
2022-12-18T09:05:05.083Z,3.39
2022-12-18T09:08:43.562Z,2.99
2022-12-18T09:12:23.411Z,2.52
2022-12-18T09:15:56.885Z,3.69
2022-12-18T09:19:20.960Z,2.84
2022-12-18T09:22:55.636Z,3.67
2022-12-18T09:26:40.973Z,3.26
2022-12-18T09:30:26.555Z,1.33
2022-12-18T09:34:24.726Z,1.88
2022-12-18T09:37:52.758Z,1.70
2022-12-18T09:41:42.542Z,3.40
2022-12-18T09:45:41.982Z,2.30
2022-12-18T09:49:28.647Z,1.67
2022-12-18T09:53:23.808Z,3.02
2022-12-18T09:57:00.436Z,2.96
2022-12-18T10:15:45.375Z,1.95
2022-12-18T10:18:59.415Z,2.11
2022-12-18T11:35:55.908Z,1.10
2022-12-18T11:39:03.969Z,0.71
2022-12-18T11:42:17.592Z,0.85
2022-12-18T11:45:32.193Z,0.78
2022-12-18T11:49:16.861Z,0.75
2022-12-18T11:52:25.267Z,0.88
2022-12-18T11:55:50.321Z,0.74
2022-12-18T11:59:17.609Z,0.69
2022-12-18T12:02:39.456Z,0.64
2022-12-18T12:06:27.860Z,0.46
2022-12-18T12:09:52.147Z,0.23
2022-12-18T14:39:00.718Z,-0.59
2022-12-18T15:39:36.977Z,-2.89
2022-12-18T15:43:25.375Z,-2.93
2022-12-18T15:46:48.175Z,-2.84
2022-12-18T15:50:11.918Z,-2.80
2022-12-18T15:53:35.135Z,-2.94
2022-12-18T15:57:24.211Z,-3.02
2022-12-18T16:00:47.218Z,-3.24
2022-12-18T16:04:30.723Z,-3.29
2022-12-18T16:08:13.862Z,-3.46
2022-12-18T16:12:20.547Z,-3.49
2022-12-18T16:16:07.222Z,-3.51
2022-12-18T16:19:45.980Z,-3.61
2022-12-18T16:23:46.835Z,-3.65
2022-12-18T16:31:14.583Z,-3.81
2022-12-18T16:34:51.992Z,-3.78
2022-12-18T16:38:29.534Z,-3.74
2022-12-18T16:42:18.265Z,-3.88
2022-12-18T16:45:53.200Z,-3.94
2022-12-18T16:49:27.430Z,-3.85
2022-12-18T16:53:02.572Z,-3.91
2022-12-18T16:56:06.475Z,-3.96
2022-12-18T16:59:30.111Z,-4.03
2022-12-18T17:03:20.833Z,-3.98
2022-12-18T17:06:54.680Z,-4.00
2022-12-18T17:10:01.611Z,-4.05
2022-12-18T17:13:27.572Z,-4.10
2022-12-18T17:17:19.301Z,-4.22
2022-12-18T17:20:35.659Z,-4.10
2022-12-18T17:23:39.549Z,-4.10
2022-12-18T17:26:43.835Z,-4.10
2022-12-18T17:29:48.372Z,-4.17
2022-12-18T17:32:51.786Z,-4.21
2022-12-18T17:36:15.927Z,-4.25
2022-12-18T17:39:23.022Z,-4.32
2022-12-18T17:42:26.414Z,-4.41
2022-12-18T17:45:29.601Z,-4.49
2022-12-18T17:48:35.382Z,-4.46
2022-12-18T17:51:41.570Z,-4.43
2022-12-18T17:54:46.240Z,-4.53
2022-12-18T17:57:56.173Z,-4.54
2022-12-18T18:01:05.873Z,-4.59
2022-12-18T18:04:09.759Z,-4.63
2022-12-18T18:07:13.567Z,-4.60
2022-12-18T18:10:25.201Z,-4.66
2022-12-18T18:14:03.134Z,-4.64
2022-12-18T18:17:14.757Z,-4.57
2022-12-18T18:20:40.919Z,-4.66
2022-12-18T18:23:45.157Z,-4.68
2022-12-18T19:16:38.147Z,-5.24
2022-12-18T19:19:41.200Z,-5.36
2022-12-18T19:22:44.789Z,-5.37
2022-12-18T19:26:26.910Z,-5.27
2022-12-18T19:29:27.852Z,-5.42
2022-12-18T19:32:31.504Z,-5.46
2022-12-18T19:35:34.434Z,-5.53
2022-12-18T19:38:38.231Z,-5.47
2022-12-18T19:41:42.225Z,-5.47
2022-12-18T19:44:45.598Z,-5.51
2022-12-18T19:47:48.254Z,-5.52
2022-12-18T19:50:51.153Z,-5.51
2022-12-18T19:53:58.867Z,-5.60
2022-12-18T19:57:02.881Z,-5.53
2022-12-18T20:00:06.798Z,-5.61
2022-12-18T20:03:24.274Z,-5.61
2022-12-18T20:06:34.298Z,-5.67
2022-12-18T20:09:37.080Z,-5.59
2022-12-18T20:12:40.177Z,-5.59
2022-12-18T20:15:45.265Z,-5.54
2022-12-18T20:18:49.264Z,-5.50
2022-12-18T20:21:52.413Z,-5.52
2022-12-18T20:24:55.410Z,-5.58
2022-12-18T20:27:58.234Z,-5.58
2022-12-18T20:31:06.642Z,-5.59
2022-12-18T20:34:09.548Z,-5.49
2022-12-18T20:37:19.454Z,-5.57
2022-12-18T20:40:24.124Z,-5.61
2022-12-18T20:43:27.064Z,-5.61
2022-12-18T20:46:29.744Z,-5.72
2022-12-18T20:49:32.704Z,-5.63
2022-12-18T20:52:35.317Z,-5.69
2022-12-18T20:55:42.417Z,-5.61
2022-12-18T20:58:45.706Z,-5.67
2022-12-18T21:01:49.501Z,-5.73
2022-12-18T21:04:53.337Z,-5.67
2022-12-18T21:07:56.380Z,-5.67
2022-12-18T21:11:47.089Z,-5.64
2022-12-18T21:14:50.122Z,-5.46
2022-12-18T21:17:53.113Z,-5.10
2022-12-18T21:20:56.213Z,-5.03
2022-12-18T21:23:59.032Z,-4.99
2022-12-18T21:27:02.116Z,-4.85
2022-12-18T21:30:05.616Z,-5.02
2022-12-18T21:33:08.762Z,-4.92
2022-12-18T21:36:12.209Z,-4.98
2022-12-18T21:39:16.716Z,-5.00
2022-12-18T21:42:37.897Z,-5.30
2022-12-18T21:45:41.032Z,-5.05
2022-12-18T21:48:44.234Z,-5.26
2022-12-18T21:51:49.531Z,-4.90
2022-12-18T21:54:52.255Z,-5.34
2022-12-18T21:57:55.348Z,-5.38
2022-12-18T22:00:58.123Z,-5.43
2022-12-18T22:04:01.018Z,-5.40
2022-12-18T22:07:05.272Z,-5.29
2022-12-18T22:10:09.115Z,-5.46
2022-12-18T22:13:11.793Z,-5.59
2022-12-18T22:16:14.786Z,-5.51
2022-12-18T22:19:18.234Z,-5.23
2022-12-18T22:22:21.230Z,-5.48
2022-12-18T22:25:23.823Z,-5.32
2022-12-18T22:28:45.301Z,-5.63
2022-12-18T22:31:48.250Z,-5.62
2022-12-18T22:34:51.248Z,-5.97
2022-12-18T22:37:53.901Z,-6.02
2022-12-18T22:40:56.839Z,-5.79
2022-12-18T22:43:59.732Z,-6.08
2022-12-18T22:47:07.033Z,-6.06
2022-12-18T22:50:14.799Z,-6.10
2022-12-18T22:53:19.951Z,-6.19
2022-12-18T22:56:22.826Z,-6.22
2022-12-18T22:59:25.872Z,-6.22
2022-12-18T23:02:28.655Z,-6.27
2022-12-18T23:05:32.108Z,-6.34
2022-12-18T23:08:35.049Z,-6.33
2022-12-18T23:11:37.975Z,-6.30
2022-12-18T23:14:40.524Z,-6.12
2022-12-18T23:17:43.464Z,-6.11
2022-12-18T23:20:46.514Z,-5.97
2022-12-18T23:23:51.001Z,-6.14
2022-12-18T23:26:53.888Z,-6.31
2022-12-18T23:29:56.883Z,-6.28
2022-12-18T23:33:01.404Z,-6.34
2022-12-18T23:36:05.304Z,-6.22
2022-12-18T23:39:07.929Z,-6.08
2022-12-18T23:42:10.877Z,-6.35
2022-12-18T23:45:17.853Z,-6.13
2022-12-18T23:48:21.325Z,-6.24
2022-12-18T23:51:25.690Z,-6.38
2022-12-18T23:54:33.568Z,-6.24
2022-12-18T23:57:36.425Z,-6.21
